General Vedia, Argentina
Current Conditions -  °F | °C
As of 6:00 PM on Sunday 23 Nov 2014 (Local Time) from SARC Reporting Station
Clear Clear  
Wind Chill: 84°   Ceiling: Unl
Heat Index: 84°   Visibility: 6mi
Dew Point: 57°   Wind: 12mph
Humidity: 40%   Direction: 20°NNE
Pressure: 29.8"   Gusts: NA
Location:  26.93°S, 58.66°W
Report Text: SARC 232100Z 02010KT CAVOK 29/14 Q1009
Loading
Personal Weather Stations






























Interactive Weather Map New forecast layout! Learn more

10-Day Weather Forecast

Advertisements
Track Severe Weather on mobile